Terminal Aerodrome Forecast
Issued by NWS

Home | Current Version | Previous Version | Text Only | Print | Product List | Glossary On
Versions: 1 2 3 4 5 6 7 8 9 10 11 12 13 14 15 16 17 18 19 20 21 22 23
982
FTUS46 KLOX 052339
TAFBUR
TAF
KBUR 052339Z 0600/0624 20009KT P6SM BKN035 OVC060
     FM060200 18008KT P6SM SCT020 OVC040
      TEMPO 0602/0606 P6SM -SHRA BKN025
     FM060600 17005KT 6SM -SHRA VCTS SCT020 OVC030CB
     FM061900 19010KT P6SM SCT025 OVC035 PROB30 0619/0623 -SHRA
      BKN025=

USA.gov is the U.S. government's official web portal to all federal, state and local government web resources and services.